Time,TemperatureF,DewpointF,PressureIn,WindDirection,WindDirectionDegrees,WindSpeedMPH,WindSpeedGustMPH,Humidity,HourlyPrecipIn,Conditions,Clouds,dailyrainin,SoftwareType,DateUTC
2013-07-22 00:01:00,59.0,51.0,29.77,NNW,343,0.0,0.0,75,0.00,,,-99.99,,2013-07-22 06:01:00,
2013-07-22 00:11:00,59.0,51.0,29.77,NNW,343,0.0,0.0,75,0.00,,,-99.99,,2013-07-22 06:11:00,
2013-07-22 00:22:00,58.0,50.0,29.77,NNW,343,0.0,0.0,75,0.00,,,-99.99,,2013-07-22 06:22:00,
2013-07-22 00:32:00,58.0,50.0,29.78,NNW,343,0.0,0.0,76,0.00,,,-99.99,,2013-07-22 06:32:00,
2013-07-22 00:43:00,57.0,50.0,29.78,NNW,343,0.0,0.0,78,0.00,,,-99.99,,2013-07-22 06:43:00,
2013-07-22 00:52:00,57.0,52.0,29.78,NNW,343,0.0,0.0,82,0.00,,,-99.99,,2013-07-22 06:52:00,
2013-07-22 01:01:00,57.0,52.0,29.78,NNW,343,0.0,1.0,83,0.00,,,-99.99,,2013-07-22 07:01:00,
2013-07-22 01:11:00,57.0,52.0,29.78,NNW,343,0.0,4.0,83,0.00,,,-99.99,,2013-07-22 07:11:00,
2013-07-22 01:22:00,57.0,52.0,29.78,NNW,348,3.0,3.0,83,0.00,,,-99.99,,2013-07-22 07:22:00,
2013-07-22 01:33:00,56.0,49.0,29.79,North,355,1.0,5.0,77,0.00,,,-99.99,,2013-07-22 07:33:00,
2013-07-22 01:43:00,57.0,49.0,29.79,North,355,1.0,5.0,74,0.00,,,-99.99,,2013-07-22 07:43:00,
2013-07-22 01:52:00,57.0,49.0,29.79,North,355,0.0,4.0,74,0.00,,,-99.99,,2013-07-22 07:52:00,
2013-07-22 02:01:00,57.0,49.0,29.79,North,355,0.0,0.0,74,0.00,,,-99.99,,2013-07-22 08:01:00,
2013-07-22 02:11:00,57.0,50.0,29.79,North,355,0.0,1.0,76,0.00,,,-99.99,,2013-07-22 08:11:00,
2013-07-22 02:32:00,56.0,50.0,29.79,North,355,0.0,0.0,79,0.00,,,-99.99,,2013-07-22 08:32:00,
2013-07-22 02:43:00,55.0,49.0,29.79,North,355,0.0,0.0,80,0.00,,,-99.99,,2013-07-22 08:43:00,
2013-07-22 02:52:00,55.0,49.0,29.79,North,355,0.0,0.0,81,0.00,,,-99.99,,2013-07-22 08:52:00,
2013-07-22 03:02:00,55.0,50.0,29.78,North,355,0.0,0.0,83,0.00,,,-99.99,,2013-07-22 09:02:00,
2013-07-22 03:11:00,54.0,49.0,29.78,North,355,0.0,0.0,83,0.00,,,-99.99,,2013-07-22 09:11:00,
2013-07-22 03:22:00,54.0,49.0,29.78,North,355,0.0,0.0,83,0.00,,,-99.99,,2013-07-22 09:22:00,
2013-07-22 03:33:00,54.0,49.0,29.78,North,355,0.0,0.0,83,0.00,,,-99.99,,2013-07-22 09:33:00,
2013-07-22 03:42:00,54.0,50.0,29.78,North,355,0.0,0.0,85,0.00,,,-99.99,,2013-07-22 09:42:00,
2013-07-22 04:02:00,53.0,48.0,29.78,North,355,1.0,3.0,84,0.00,,,-99.99,,2013-07-22 10:02:00,
2013-07-22 04:11:00,53.0,48.0,29.77,NE,37,0.0,2.0,83,0.00,,,-99.99,,2013-07-22 10:11:00,
2013-07-22 04:22:00,53.0,48.0,29.78,NE,37,0.0,1.0,83,0.00,,,-99.99,,2013-07-22 10:22:00,
2013-07-22 04:32:00,53.0,48.0,29.78,NE,36,0.0,0.0,84,0.00,,,-99.99,,2013-07-22 10:32:00,
2013-07-22 04:43:00,52.0,48.0,29.77,NE,37,0.0,0.0,85,0.00,,,-99.99,,2013-07-22 10:43:00,
2013-07-22 04:52:00,52.0,48.0,29.78,NE,37,2.0,3.0,85,0.00,,,-99.99,,2013-07-22 10:52:00,
2013-07-22 05:01:00,52.0,48.0,29.78,NNE,30,0.0,4.0,85,0.00,,,-99.99,,2013-07-22 11:01:00,
2013-07-22 05:11:00,51.0,47.0,29.78,NNE,30,0.0,1.0,85,0.00,,,-99.99,,2013-07-22 11:11:00,
2013-07-22 05:22:00,51.0,46.0,29.78,NNE,30,0.0,0.0,84,0.00,,,-99.99,,2013-07-22 11:22:00,
2013-07-22 05:32:00,51.0,46.0,29.78,NNE,30,0.0,0.0,84,0.00,,,-99.99,,2013-07-22 11:32:00,
2013-07-22 05:43:00,51.0,47.0,29.78,NNE,30,0.0,0.0,86,0.00,,,-99.99,,2013-07-22 11:43:00,
2013-07-22 06:02:00,50.0,46.0,29.79,NNE,30,0.0,0.0,87,0.00,,,-99.99,,2013-07-22 12:02:00,
2013-07-22 06:11:00,50.0,46.0,29.79,NNE,30,0.0,0.0,87,0.00,,,-99.99,,2013-07-22 12:11:00,
2013-07-22 06:32:00,49.0,46.0,29.79,NNE,30,0.0,0.0,88,0.00,,,-99.99,,2013-07-22 12:32:00,
2013-07-22 07:01:00,49.0,46.0,29.80,NNE,32,0.0,0.0,91,0.00,,,-99.99,,2013-07-22 13:01:00,
2013-07-22 07:32:00,50.0,47.0,29.80,ESE,107,0.0,4.0,91,0.00,,,-99.99,,2013-07-22 13:32:00,
2013-07-22 07:43:00,51.0,48.0,29.80,ESE,107,0.0,2.0,90,0.00,,,-99.99,,2013-07-22 13:43:00,
2013-07-22 08:01:00,54.0,50.0,29.80,ESE,107,0.0,1.0,85,0.00,,,-99.99,,2013-07-22 14:01:00,
2013-07-22 08:11:00,55.0,50.0,29.81,ESE,107,0.0,4.0,82,0.00,,,-99.99,,2013-07-22 14:11:00,
2013-07-22 08:22:00,56.0,50.0,29.81,ESE,107,0.0,1.0,79,0.00,,,-99.99,,2013-07-22 14:22:00,
2013-07-22 08:32:00,57.0,49.0,29.81,ESE,107,1.0,2.0,75,0.00,,,-99.99,,2013-07-22 14:32:00,
2013-07-22 08:43:00,58.0,48.0,29.81,ESE,107,0.0,2.0,70,0.00,,,-99.99,,2013-07-22 14:43:00,
2013-07-22 08:53:00,61.0,50.0,29.81,ESE,107,1.0,2.0,67,0.00,,,-99.99,,2013-07-22 14:53:00,
2013-07-22 09:01:00,63.0,49.0,29.81,ESE,107,1.0,2.0,61,0.00,,,-99.99,,2013-07-22 15:01:00,
2013-07-22 09:11:00,65.0,50.0,29.81,SE,144,1.0,2.0,59,0.00,,,-99.99,,2013-07-22 15:11:00,
2013-07-22 09:22:00,66.0,49.0,29.80,East,94,0.0,5.0,55,0.00,,,-99.99,,2013-07-22 15:22:00,
2013-07-22 09:33:00,67.0,50.0,29.80,ESE,107,1.0,5.0,54,0.00,,,-99.99,,2013-07-22 15:33:00,
2013-07-22 09:42:00,68.0,49.0,29.79,ESE,106,0.0,4.0,51,0.00,,,-99.99,,2013-07-22 15:42:00,
2013-07-22 09:52:00,70.0,49.0,29.79,ESE,103,1.0,4.0,48,0.00,,,-99.99,,2013-07-22 15:52:00,
2013-07-22 10:01:00,71.0,50.0,29.78,ESE,103,0.0,2.0,47,0.00,,,-99.99,,2013-07-22 16:01:00,
2013-07-22 10:11:00,73.0,51.0,29.78,ENE,72,1.0,4.0,46,0.00,,,-99.99,,2013-07-22 16:11:00,
2013-07-22 10:21:00,74.0,51.0,29.78,ENE,73,1.0,3.0,44,0.00,,,-99.99,,2013-07-22 16:21:00,
2013-07-22 10:32:00,75.0,50.0,29.77,ENE,73,0.0,2.0,41,0.00,,,-99.99,,2013-07-22 16:32:00,
2013-07-22 10:43:00,77.0,50.0,29.77,ESE,107,0.0,4.0,39,0.00,,,-99.99,,2013-07-22 16:43:00,
2013-07-22 10:52:00,78.0,50.0,29.76,SE,126,4.0,6.0,37,0.00,,,-99.99,,2013-07-22 16:52:00,
2013-07-22 11:01:00,79.0,48.0,29.76,South,185,2.0,6.0,34,0.00,,,-99.99,,2013-07-22 17:01:00,
2013-07-22 11:11:00,79.0,46.0,29.76,ENE,78,3.0,5.0,31,0.00,,,-99.99,,2013-07-22 17:11:00,
2013-07-22 11:23:00,78.0,49.0,29.75,ENE,75,3.0,6.0,36,0.00,,,-99.99,,2013-07-22 17:23:00,
2013-07-22 11:32:00,78.0,48.0,29.75,East,90,5.0,8.0,35,0.00,,,-99.99,,2013-07-22 17:32:00,
2013-07-22 11:43:00,80.0,50.0,29.75,ESE,112,6.0,9.0,35,0.00,,,-99.99,,2013-07-22 17:43:00,
2013-07-22 11:52:00,80.0,50.0,29.74,ESE,123,7.0,10.0,35,0.00,,,-99.99,,2013-07-22 17:52:00,
2013-07-22 12:13:00,82.0,52.0,29.73,SE,135,7.0,10.0,35,0.00,,,-99.99,,2013-07-22 18:13:00,
2013-07-22 12:23:00,83.0,50.0,29.73,SE,144,6.0,10.0,32,0.00,,,-99.99,,2013-07-22 18:23:00,
2013-07-22 12:48:00,85.0,52.0,29.72,SE,142,6.0,9.0,32,0.00,,,-99.99,,2013-07-22 18:48:00,
2013-07-22 12:54:00,85.0,51.0,29.72,SSE,153,5.0,9.0,31,0.00,,,-99.99,,2013-07-22 18:54:00,
2013-07-22 13:03:00,85.0,52.0,29.71,ESE,116,5.0,9.0,32,0.00,,,-99.99,,2013-07-22 19:03:00,
2013-07-22 13:22:00,87.0,50.0,29.70,SE,124,6.0,14.0,28,0.00,,,-99.99,,2013-07-22 19:22:00,
2013-07-22 13:53:00,89.0,44.0,29.69,ESE,105,6.0,9.0,21,0.00,,,-99.99,,2013-07-22 19:53:00,
2013-07-22 14:03:00,88.0,41.0,29.68,East,101,6.0,9.0,19,0.00,,,-99.99,,2013-07-22 20:03:00,
2013-07-22 14:15:00,88.0,39.0,29.69,East,96,2.0,9.0,18,0.00,,,-99.99,,2013-07-22 20:15:00,
2013-07-22 14:32:00,88.0,42.0,29.70,North,360,2.0,6.0,20,0.00,,,-99.99,,2013-07-22 20:32:00,
2013-07-22 14:43:00,86.0,38.0,29.70,SSW,213,0.0,14.0,18,0.00,,,-99.99,,2013-07-22 20:43:00,
2013-07-22 14:52:00,85.0,38.0,29.70,NNE,32,5.0,11.0,19,0.00,,,-99.99,,2013-07-22 20:52:00,
2013-07-22 15:01:00,83.0,39.0,29.70,NNW,329,2.0,14.0,21,0.00,,,-99.99,,2013-07-22 21:01:00,
2013-07-22 15:11:00,83.0,38.0,29.71,SE,131,6.0,9.0,20,0.00,,,-99.99,,2013-07-22 21:11:00,
2013-07-22 15:22:00,82.0,44.0,29.71,East,91,8.0,13.0,26,0.00,,,-99.99,,2013-07-22 21:22:00,
2013-07-22 15:32:00,82.0,43.0,29.71,ESE,102,8.0,14.0,25,0.00,,,-99.99,,2013-07-22 21:32:00,
2013-07-22 15:43:00,81.0,44.0,29.72,SE,146,9.0,15.0,27,0.00,,,-99.99,,2013-07-22 21:43:00,
2013-07-22 16:01:00,79.0,44.0,29.74,WSW,249,23.0,23.0,29,0.00,,,-99.99,,2013-07-22 22:01:00,
2013-07-22 16:11:00,78.0,45.0,29.75,West,270,10.0,23.0,31,0.00,,,-99.99,,2013-07-22 22:11:00,
2013-07-22 16:32:00,79.0,44.0,29.73,SW,235,5.0,15.0,29,0.00,,,-99.99,,2013-07-22 22:32:00,
2013-07-22 16:43:00,78.0,42.0,29.73,South,177,4.0,12.0,28,0.00,,,-99.99,,2013-07-22 22:43:00,
2013-07-22 16:52:00,78.0,43.0,29.73,SE,128,1.0,6.0,29,0.00,,,-99.99,,2013-07-22 22:52:00,
2013-07-22 17:01:00,78.0,44.0,29.74,NE,41,4.0,4.0,30,0.00,,,-99.99,,2013-07-22 23:01:00,
2013-07-22 17:11:00,78.0,43.0,29.73,NNE,17,3.0,8.0,29,0.00,,,-99.99,,2013-07-22 23:11:00,
2013-07-22 17:22:00,78.0,47.0,29.72,NE,38,0.0,5.0,33,0.00,,,-99.99,,2013-07-22 23:22:00,
2013-07-22 17:32:00,78.0,46.0,29.72,WSW,242,6.0,8.0,32,0.00,,,-99.99,,2013-07-22 23:32:00,
2013-07-22 17:42:00,77.0,46.0,29.72,SW,217,0.0,7.0,33,0.00,,,-99.99,,2013-07-22 23:42:00,
2013-07-22 18:01:00,76.0,47.0,29.71,ESE,121,0.0,6.0,36,0.00,,,-99.99,,2013-07-23 00:01:00,
2013-07-22 18:12:00,76.0,46.0,29.71,ESE,122,2.0,4.0,34,0.00,,,-99.99,,2013-07-23 00:12:00,
2013-07-22 18:32:00,76.0,45.0,29.71,SW,225,5.0,8.0,33,0.00,,,-99.99,,2013-07-23 00:32:00,
2013-07-22 18:43:00,76.0,46.0,29.70,SSW,207,2.0,8.0,34,0.00,,,-99.99,,2013-07-23 00:43:00,
2013-07-22 18:52:00,76.0,46.0,29.71,SSE,161,2.0,9.0,35,0.00,,,-99.99,,2013-07-23 00:52:00,
2013-07-22 19:01:00,76.0,46.0,29.70,SSE,161,1.0,4.0,34,0.00,,,-99.99,,2013-07-23 01:01:00,
2013-07-22 19:11:00,76.0,47.0,29.70,WNW,294,3.0,5.0,36,0.00,,,-99.99,,2013-07-23 01:11:00,
2013-07-22 19:22:00,76.0,46.0,29.71,NW,324,0.0,4.0,35,0.00,,,-99.99,,2013-07-23 01:22:00,
2013-07-22 19:32:00,76.0,47.0,29.71,NW,323,1.0,7.0,36,0.00,,,-99.99,,2013-07-23 01:32:00,
2013-07-22 19:43:00,76.0,47.0,29.70,NNW,342,0.0,4.0,36,0.00,,,-99.99,,2013-07-23 01:43:00,
2013-07-22 19:53:00,75.0,46.0,29.70,NNW,342,1.0,4.0,36,0.00,,,-99.99,,2013-07-23 01:53:00,
2013-07-22 20:01:00,75.0,46.0,29.69,NNW,342,0.0,4.0,36,0.00,,,-99.99,,2013-07-23 02:01:00,
2013-07-22 20:11:00,74.0,49.0,29.68,ESE,113,2.0,4.0,41,0.00,,,-99.99,,2013-07-23 02:11:00,
2013-07-22 20:22:00,73.0,52.0,29.69,SE,136,0.0,5.0,47,0.00,,,-99.99,,2013-07-23 02:22:00,
2013-07-22 20:33:00,72.0,51.0,29.69,SE,136,2.0,2.0,47,0.00,,,-99.99,,2013-07-23 02:33:00,
2013-07-22 20:43:00,72.0,49.0,29.69,SSW,211,0.0,4.0,45,0.00,,,-99.99,,2013-07-23 02:43:00,
2013-07-22 20:52:00,72.0,49.0,29.69,SSW,211,0.0,2.0,44,0.00,,,-99.99,,2013-07-23 02:52:00,
2013-07-22 21:01:00,71.0,49.0,29.69,North,360,4.0,6.0,45,0.00,,,-99.99,,2013-07-23 03:01:00,
2013-07-22 21:11:00,71.0,49.0,29.69,North,5,3.0,7.0,46,0.00,,,-99.99,,2013-07-23 03:11:00,
2013-07-22 21:33:00,70.0,51.0,29.68,East,90,2.0,2.0,51,0.00,,,-99.99,,2013-07-23 03:33:00,
2013-07-22 21:43:00,69.0,50.0,29.69,ESE,117,1.0,8.0,51,0.00,,,-99.99,,2013-07-23 03:43:00,
2013-07-22 21:52:00,69.0,50.0,29.70,ESE,118,0.0,7.0,51,0.00,,,-99.99,,2013-07-23 03:52:00,
2013-07-22 22:01:00,69.0,51.0,29.70,ESE,117,2.0,4.0,52,0.00,,,-99.99,,2013-07-23 04:01:00,
2013-07-22 22:11:00,68.0,50.0,29.71,WSW,254,1.0,5.0,52,0.00,,,-99.99,,2013-07-23 04:11:00,
2013-07-22 22:32:00,67.0,51.0,29.71,WSW,254,1.0,2.0,56,0.00,,,-99.99,,2013-07-23 04:32:00,
2013-07-22 22:42:00,67.0,51.0,29.71,WSW,254,0.0,1.0,57,0.00,,,-99.99,,2013-07-23 04:42:00,
2013-07-22 23:02:00,66.0,51.0,29.72,WSW,254,0.0,3.0,59,0.00,,,-99.99,,2013-07-23 05:02:00,
2013-07-22 23:11:00,65.0,50.0,29.72,WSW,254,0.0,0.0,59,0.00,,,-99.99,,2013-07-23 05:11:00,
2013-07-22 23:33:00,64.0,51.0,29.73,WSW,254,2.0,2.0,62,0.00,,,-99.99,,2013-07-23 05:33:00,
2013-07-22 23:43:00,64.0,49.0,29.73,WSW,254,0.0,2.0,59,0.00,,,-99.99,,2013-07-23 05:43:00,
2013-07-22 23:52:00,63.0,49.0,29.73,WSW,254,0.0,3.0,61,0.00,,,-99.99,,2013-07-23 05:52:00,